Time;durP1;ratioP1;P1;durP2;ratioP2;P2;SDS_P1;SDS_P2;PMS_P1;PMS_P2;Temp;Humidity;BMP_temperature;BMP_pressure;BME280_temperature;BME280_humidity;BME280_pressure;Samples;Min_cycle;Max_cycle;Signal;HPM_P1;HPM_P2
2021/05/22 00:00:51;;;;;;;;;;;12.10;74.40;;;;;;4347146;33;20021;-78
2021/05/22 00:03:23;;;;;;;;;;;12.10;74.40;;;;;;4334746;33;20737;-77
2021/05/22 00:05:55;;;;;;;;;;;12.10;74.50;;;;;;4346911;33;20124;-77
2021/05/22 00:08:30;;;;;;;;;;;12.10;74.40;;;;;;4347077;33;20056;-78
2021/05/22 00:11:03;;;;;;;;;;;12.10;74.50;;;;;;4347141;33;20025;-76
2021/05/22 00:13:36;;;;;;;;;;;12.00;74.60;;;;;;4348072;33;20022;-78
2021/05/22 00:16:09;;;;;;;;;;;12.00;74.70;;;;;;4346859;33;20304;-78
2021/05/22 00:18:42;;;;;;;;;;;12.00;74.80;;;;;;4346607;33;19998;-76
2021/05/22 00:21:15;;;;;;;;;;;12.00;74.70;;;;;;4346914;33;20047;-78
2021/05/22 00:23:51;;;;;;;;;;;12.00;74.60;;;;;;4346875;33;20392;-78
2021/05/22 00:26:20;;;;;;;;;;;12.00;74.90;;;;;;4346133;33;20068;-78
2021/05/22 00:28:54;;;;;;;;;;;11.90;75.10;;;;;;4347717;33;20068;-77
2021/05/22 00:31:27;;;;;;;;;;;11.90;75.30;;;;;;4346565;33;20453;-76
2021/05/22 00:34:04;;;;;;;;;;;11.90;75.70;;;;;;4334426;33;20009;-77
2021/05/22 00:36:37;;;;;;;;;;;11.80;75.90;;;;;;4347725;33;20053;-77
2021/05/22 00:39:07;;;;;;;;;;;11.70;76.00;;;;;;4334405;33;20016;-76
2021/05/22 00:41:37;;;;;;;;;;;11.70;76.10;;;;;;4346556;33;20013;-76
2021/05/22 00:44:10;;;;;;;;;;;11.70;76.00;;;;;;4334704;33;19997;-76
2021/05/22 00:46:37;;;;;;;;;;;11.70;76.00;;;;;;4346418;33;20005;-77
2021/05/22 00:49:16;;;;;;;;;;;11.70;76.20;;;;;;4346482;33;20008;-76
2021/05/22 00:51:46;;;;;;;;;;;11.70;76.20;;;;;;4334183;33;20009;-76
2021/05/22 00:54:19;;;;;;;;;;;11.70;76.10;;;;;;4347422;33;20005;-76
2021/05/22 00:56:52;;;;;;;;;;;11.70;76.00;;;;;;4347431;32;20025;-76
2021/05/22 00:59:34;;;;;;;;;;;11.70;75.90;;;;;;4347256;33;20041;-76
2021/05/22 01:02:10;;;;;;;;;;;11.70;76.00;;;;;;4345819;33;20020;-76
2021/05/22 01:04:40;;;;;;;;;;;11.70;75.80;;;;;;4334165;33;20458;-76
2021/05/22 01:07:16;;;;;;;;;;;11.70;75.70;;;;;;4334304;33;20045;-76
2021/05/22 01:09:47;;;;;;;;;;;11.70;75.80;;;;;;4333996;33;20005;-76
2021/05/22 01:12:24;;;;;;;;;;;11.70;75.70;;;;;;4346091;33;20056;-77
2021/05/22 01:14:54;;;;;;;;;;;11.70;75.70;;;;;;4346189;33;20058;-76
2021/05/22 01:17:30;;;;;;;;;;;11.70;75.70;;;;;;4334068;33;20021;-76
2021/05/22 01:20:08;;;;;;;;;;;11.60;75.70;;;;;;4347197;32;20036;-76
2021/05/22 01:22:46;;;;;;;;;;;11.60;75.90;;;;;;4346329;33;20060;-76
2021/05/22 01:25:25;;;;;;;;;;;11.60;75.90;;;;;;4346008;33;20053;-76
2021/05/22 01:28:02;;;;;;;;;;;11.50;76.00;;;;;;4333643;33;20049;-76
2021/05/22 01:30:32;;;;;;;;;;;11.50;76.10;;;;;;4347034;33;20395;-76
2021/05/22 01:33:05;;;;;;;;;;;11.50;76.10;;;;;;4345380;33;20056;-76
2021/05/22 01:35:38;;;;;;;;;;;11.50;76.10;;;;;;4345627;33;20061;-76
2021/05/22 01:38:09;;;;;;;;;;;11.50;76.10;;;;;;4346368;33;20437;-76
2021/05/22 01:40:45;;;;;;;;;;;11.50;76.10;;;;;;4333659;33;20406;-77
2021/05/22 01:43:20;;;;;;;;;;;11.40;76.10;;;;;;4333570;33;20009;-76
2021/05/22 01:45:51;;;;;;;;;;;11.50;76.20;;;;;;4345865;33;20027;-76
2021/05/22 01:48:23;;;;;;;;;;;11.50;76.10;;;;;;4346668;33;20431;-76
2021/05/22 01:51:02;;;;;;;;;;;11.40;76.20;;;;;;4345788;33;20406;-76
2021/05/22 01:53:37;;;;;;;;;;;11.40;76.40;;;;;;4345524;33;20009;-75
2021/05/22 01:56:11;;;;;;;;;;;11.40;76.60;;;;;;4333781;33;20020;-76
2021/05/22 01:58:49;;;;;;;;;;;11.30;76.60;;;;;;4346765;33;20019;-76
2021/05/22 02:01:24;;;;;;;;;;;11.40;76.60;;;;;;4346555;33;20072;-76
2021/05/22 02:03:58;;;;;;;;;;;11.40;76.70;;;;;;4335796;33;20519;-75
2021/05/22 02:06:37;;;;;;;;;;;11.30;76.80;;;;;;4361341;33;20009;-75
2021/05/22 02:09:14;;;;;;;;;;;11.30;77.10;;;;;;4336031;33;20334;-75
2021/05/22 02:11:53;;;;;;;;;;;11.20;77.20;;;;;;4347893;33;20466;-74
2021/05/22 02:14:35;;;;;;;;;;;11.20;77.30;;;;;;4348122;33;20072;-75
2021/05/22 02:17:06;;;;;;;;;;;11.20;77.50;;;;;;4361257;33;20083;-75
2021/05/22 02:19:35;;;;;;;;;;;11.20;77.50;;;;;;4361318;33;20013;-77
2021/05/22 02:22:09;;;;;;;;;;;11.20;77.50;;;;;;4361268;33;20013;-75
2021/05/22 02:24:45;;;;;;;;;;;11.20;77.70;;;;;;4348071;33;20030;-75
2021/05/22 02:27:17;;;;;;;;;;;11.20;77.80;;;;;;4361290;33;20092;-74
2021/05/22 02:29:45;;;;;;;;;;;11.20;77.80;;;;;;4347829;33;20397;-74
2021/05/22 02:32:17;;;;;;;;;;;11.20;77.70;;;;;;4347886;33;20081;-77
2021/05/22 02:34:59;;;;;;;;;;;11.30;77.90;;;;;;4335579;33;20398;-75
2021/05/22 02:37:34;;;;;;;;;;;11.20;78.20;;;;;;4347825;33;20001;-74
2021/05/22 02:40:08;;;;;;;;;;;11.20;78.30;;;;;;4348048;33;20127;-74
2021/05/22 02:42:44;;;;;;;;;;;11.20;78.70;;;;;;4361275;33;20056;-75
2021/05/22 02:45:17;;;;;;;;;;;11.10;78.80;;;;;;4335632;33;20060;-74
2021/05/22 02:47:54;;;;;;;;;;;11.10;78.70;;;;;;4335803;33;20008;-74
2021/05/22 02:50:32;;;;;;;;;;;11.20;78.60;;;;;;4337724;32;20006;-75
2021/05/22 02:53:04;;;;;;;;;;;11.20;78.60;;;;;;4338346;32;20060;-75
2021/05/22 02:55:34;;;;;;;;;;;11.20;78.90;;;;;;4350776;32;20072;-75
2021/05/22 02:58:07;;;;;;;;;;;11.20;79.00;;;;;;4350669;32;20124;-75
2021/05/22 03:00:43;;;;;;;;;;;11.20;79.00;;;;;;4350318;32;20028;-74
2021/05/22 03:03:17;;;;;;;;;;;11.20;79.40;;;;;;4350070;32;20007;-75
2021/05/22 03:05:46;;;;;;;;;;;11.20;79.10;;;;;;4363882;32;20009;-75
2021/05/22 03:08:19;;;;;;;;;;;11.20;79.40;;;;;;4350201;32;20056;-74
2021/05/22 03:10:55;;;;;;;;;;;11.10;79.90;;;;;;4337929;32;20045;-74
2021/05/22 03:13:28;;;;;;;;;;;11.20;79.90;;;;;;4350513;32;20013;-78
2021/05/22 03:16:03;;;;;;;;;;;11.10;79.90;;;;;;4350232;32;20047;-75
2021/05/22 03:18:38;;;;;;;;;;;11.20;80.20;;;;;;4349980;32;20008;-75
2021/05/22 03:21:09;;;;;;;;;;;11.20;80.00;;;;;;4363652;32;20323;-75
2021/05/22 03:23:45;;;;;;;;;;;11.20;80.40;;;;;;4338003;32;20473;-75
2021/05/22 03:26:19;;;;;;;;;;;11.20;80.20;;;;;;4363753;32;20013;-75
2021/05/22 03:28:49;;;;;;;;;;;11.20;80.50;;;;;;4337861;32;20020;-76
2021/05/22 03:31:22;;;;;;;;;;;11.20;80.30;;;;;;4350452;32;20023;-75
2021/05/22 03:33:58;;;;;;;;;;;11.20;80.10;;;;;;4349945;32;20401;-75
2021/05/22 03:36:30;;;;;;;;;;;11.20;80.10;;;;;;4349996;32;20002;-76
2021/05/22 03:39:06;;;;;;;;;;;11.20;80.30;;;;;;4362286;32;20049;-76
2021/05/22 03:41:36;;;;;;;;;;;11.20;80.20;;;;;;4337786;32;20422;-75
2021/05/22 03:44:11;;;;;;;;;;;11.20;80.30;;;;;;4337815;32;20008;-77
2021/05/22 03:46:44;;;;;;;;;;;11.20;80.50;;;;;;4349978;32;20047;-75
2021/05/22 03:49:17;;;;;;;;;;;11.20;80.70;;;;;;4363284;32;20064;-75
2021/05/22 03:51:44;;;;;;;;;;;11.20;80.10;;;;;;4337641;32;20049;-76
2021/05/22 03:54:28;;;;;;;;;;;11.20;80.30;;;;;;4337903;32;20005;-76
2021/05/22 03:56:58;;;;;;;;;;;11.20;80.40;;;;;;4362914;32;20399;-75
2021/05/22 03:59:32;;;;;;;;;;;11.20;80.70;;;;;;4349582;32;20042;-75
2021/05/22 04:02:04;;;;;;;;;;;11.20;80.60;;;;;;4334314;33;20342;-76
2021/05/22 04:04:42;;;;;;;;;;;11.20;80.70;;;;;;4348268;32;20056;-76
2021/05/22 04:07:15;;;;;;;;;;;11.20;80.80;;;;;;4347076;33;20405;-75
2021/05/22 04:09:54;;;;;;;;;;;11.20;80.70;;;;;;4346947;33;20009;-75
2021/05/22 04:12:24;;;;;;;;;;;11.20;80.90;;;;;;4347246;33;20110;-75
2021/05/22 04:15:03;;;;;;;;;;;11.20;81.20;;;;;;4347820;32;20156;-74
2021/05/22 04:17:35;;;;;;;;;;;11.20;81.00;;;;;;4347030;33;20019;-76
2021/05/22 04:20:11;;;;;;;;;;;11.20;81.20;;;;;;4346797;33;20120;-76
2021/05/22 04:22:43;;;;;;;;;;;11.20;81.60;;;;;;4346772;33;20053;-75
2021/05/22 04:25:16;;;;;;;;;;;11.10;81.60;;;;;;4348005;33;20415;-75
2021/05/22 04:27:45;;;;;;;;;;;11.20;81.40;;;;;;4334583;33;20361;-74
2021/05/22 04:30:19;;;;;;;;;;;11.20;81.30;;;;;;4346500;33;20469;-75
2021/05/22 04:32:54;;;;;;;;;;;11.20;81.30;;;;;;4346827;33;20013;-76
2021/05/22 04:35:24;;;;;;;;;;;11.20;81.70;;;;;;4334331;33;20446;-75
2021/05/22 04:37:54;;;;;;;;;;;11.10;81.70;;;;;;4346419;33;20432;-75
2021/05/22 04:40:30;;;;;;;;;;;11.10;81.40;;;;;;4346590;33;20061;-75
2021/05/22 04:43:03;;;;;;;;;;;11.20;81.50;;;;;;4334285;33;20045;-75
2021/05/22 04:45:34;;;;;;;;;;;11.20;81.70;;;;;;4346617;33;20402;-75
2021/05/22 04:48:11;;;;;;;;;;;11.20;82.10;;;;;;4346357;33;20095;-76
2021/05/22 04:50:49;;;;;;;;;;;11.10;82.60;;;;;;4334533;33;20057;-76
2021/05/22 04:53:25;;;;;;;;;;;11.10;82.50;;;;;;4346336;33;20364;-76
2021/05/22 04:55:55;;;;;;;;;;;11.10;82.60;;;;;;4346643;33;20474;-75
2021/05/22 04:58:25;;;;;;;;;;;11.00;82.60;;;;;;4347082;33;20099;-75
2021/05/22 05:00:55;;;;;;;;;;;11.10;82.80;;;;;;4345986;33;20071;-75
2021/05/22 05:03:24;;;;;;;;;;;11.10;82.90;;;;;;4360905;32;20102;-75
2021/05/22 05:06:00;;;;;;;;;;;11.10;82.90;;;;;;4349043;32;20056;-77
2021/05/22 05:08:33;;;;;;;;;;;11.10;83.50;;;;;;4362103;32;20013;-78
2021/05/22 05:11:02;;;;;;;;;;;11.00;83.30;;;;;;4348615;32;20069;-75
2021/05/22 05:13:37;;;;;;;;;;;11.00;83.40;;;;;;4347930;32;20056;-78
2021/05/22 05:16:14;;;;;;;;;;;11.00;83.40;;;;;;4362004;32;20007;-76
2021/05/22 05:18:45;;;;;;;;;;;11.00;83.60;;;;;;4348392;32;20083;-75
2021/05/22 05:21:15;;;;;;;;;;;11.00;83.50;;;;;;4348631;32;20131;-75
2021/05/22 05:23:48;;;;;;;;;;;11.10;83.50;;;;;;4335956;32;20059;-76
2021/05/22 05:26:24;;;;;;;;;;;11.00;83.40;;;;;;4336546;32;20346;-80
2021/05/22 05:29:00;;;;;;;;;;;11.10;83.70;;;;;;4336129;32;20464;-78
2021/05/22 05:31:32;;;;;;;;;;;11.10;83.80;;;;;;4361559;32;20023;-75
2021/05/22 05:34:02;;;;;;;;;;;11.10;83.70;;;;;;4348070;32;20056;-79
2021/05/22 05:36:38;;;;;;;;;;;11.10;83.60;;;;;;4361752;32;20144;-76
2021/05/22 05:39:10;;;;;;;;;;;11.10;84.00;;;;;;4361881;32;20005;-76
2021/05/22 05:41:40;;;;;;;;;;;11.10;84.10;;;;;;4348643;32;20056;-75
2021/05/22 05:44:16;;;;;;;;;;;11.10;84.20;;;;;;4361409;32;20052;-76
2021/05/22 05:46:49;;;;;;;;;;;11.10;84.20;;;;;;4336044;32;19993;-76
2021/05/22 05:49:16;;;;;;;;;;;11.10;84.50;;;;;;4348278;32;20076;-76
2021/05/22 05:51:49;;;;;;;;;;;11.10;85.20;;;;;;4348256;32;20024;-76
2021/05/22 05:54:21;;;;;;;;;;;11.10;85.10;;;;;;4348051;32;20048;-74
2021/05/22 05:56:54;;;;;;;;;;;11.10;85.40;;;;;;4361687;32;20020;-76
2021/05/22 05:59:23;;;;;;;;;;;11.10;85.60;;;;;;4361634;32;20004;-75
2021/05/22 06:01:56;;;;;;;;;;;11.10;85.80;;;;;;4360948;32;20026;-75
2021/05/22 06:04:23;;;;;;;;;;;11.00;86.40;;;;;;4348151;33;20024;-76
2021/05/22 06:06:59;;;;;;;;;;;11.00;86.00;;;;;;4361399;33;20001;-74
2021/05/22 06:09:33;;;;;;;;;;;11.00;85.90;;;;;;4361364;33;20011;-74
2021/05/22 06:12:03;;;;;;;;;;;11.00;86.00;;;;;;4361473;33;20394;-73
2021/05/22 06:14:42;;;;;;;;;;;11.00;86.00;;;;;;4348258;33;20060;-73
2021/05/22 06:17:12;;;;;;;;;;;11.00;86.60;;;;;;4361223;33;20070;-73
2021/05/22 06:19:42;;;;;;;;;;;11.00;86.30;;;;;;4361078;33;20008;-73
2021/05/22 06:22:15;;;;;;;;;;;11.00;86.50;;;;;;4348138;33;20394;-73
2021/05/22 06:24:48;;;;;;;;;;;11.00;86.60;;;;;;4338503;32;20005;-73
2021/05/22 06:27:27;;;;;;;;;;;11.00;86.90;;;;;;4339280;32;20064;-73
2021/05/22 06:30:14;;;;;;;;;;;11.00;87.40;;;;;;4351742;32;20009;-73
2021/05/22 06:32:44;;;;;;;;;;;11.00;86.90;;;;;;4338388;32;19997;-73
2021/05/22 06:35:20;;;;;;;;;;;11.00;86.90;;;;;;4364251;32;20115;-73
2021/05/22 06:37:53;;;;;;;;;;;11.00;87.70;;;;;;4338493;32;20420;-73
2021/05/22 06:40:31;;;;;;;;;;;10.90;88.00;;;;;;4351172;32;20084;-73
2021/05/22 06:42:59;;;;;;;;;;;10.90;87.90;;;;;;4350666;32;20040;-74
2021/05/22 06:45:43;;;;;;;;;;;10.90;88.20;;;;;;4350896;32;20016;-74
2021/05/22 06:48:17;;;;;;;;;;;10.90;88.90;;;;;;4350583;32;20013;-74
2021/05/22 06:50:55;;;;;;;;;;;10.80;88.80;;;;;;4350152;32;20019;-73
2021/05/22 06:53:22;;;;;;;;;;;10.80;89.00;;;;;;4350474;32;20504;-75
2021/05/22 06:55:50;;;;;;;;;;;10.80;88.90;;;;;;4350362;32;20418;-73
2021/05/22 06:58:18;;;;;;;;;;;10.80;88.70;;;;;;4364028;32;20017;-74
2021/05/22 07:00:56;;;;;;;;;;;10.80;88.80;;;;;;4338443;32;20039;-73
2021/05/22 07:03:26;;;;;;;;;;;10.80;89.20;;;;;;4363400;32;20018;-74
2021/05/22 07:06:02;;;;;;;;;;;10.90;89.30;;;;;;4363694;32;20032;-74
2021/05/22 07:08:29;;;;;;;;;;;10.80;89.60;;;;;;4350454;32;20084;-74
2021/05/22 07:11:05;;;;;;;;;;;10.90;89.70;;;;;;4338168;32;20007;-73
2021/05/22 07:13:37;;;;;;;;;;;10.90;89.70;;;;;;4350509;32;20124;-73
2021/05/22 07:16:16;;;;;;;;;;;10.90;89.70;;;;;;4363918;32;20068;-74
2021/05/22 07:18:43;;;;;;;;;;;10.80;90.10;;;;;;4363781;32;20067;-74
2021/05/22 07:21:25;;;;;;;;;;;10.80;90.00;;;;;;4362789;32;20020;-74
2021/05/22 07:24:04;;;;;;;;;;;10.90;90.10;;;;;;4350473;32;20004;-75
2021/05/22 07:26:34;;;;;;;;;;;10.80;90.30;;;;;;4350572;32;20446;-74
2021/05/22 07:29:03;;;;;;;;;;;10.80;90.10;;;;;;4363127;32;20009;-74
2021/05/22 07:31:43;;;;;;;;;;;10.80;90.30;;;;;;4349702;32;20061;-74
2021/05/22 07:34:14;;;;;;;;;;;10.90;90.10;;;;;;4337754;32;20001;-74
2021/05/22 07:36:44;;;;;;;;;;;10.90;90.30;;;;;;4362062;32;20018;-74
2021/05/22 07:39:31;;;;;;;;;;;10.90;90.50;;;;;;4338509;32;19997;-76
2021/05/22 07:42:35;;;;;;;;;;;10.90;90.40;;;;;;4352668;32;20005;-75
2021/05/22 08:55:49;;;;;;;;;;;11.20;91.00;;;;;;4345752;33;42887;-75
2021/05/22 08:58:16;;;;;;;;;;;11.20;91.10;;;;;;4346269;33;26413;-75
2021/05/22 09:00:43;;;;;;;;;;;11.20;91.10;;;;;;4347007;33;20023;-74
2021/05/22 09:03:11;;;;;;;;;;;11.20;90.90;;;;;;4333780;33;20007;-75
2021/05/22 09:05:41;;;;;;;;;;;11.20;91.00;;;;;;4321029;33;22091;-74
2021/05/22 09:08:13;;;;;;;;;;;11.30;91.30;;;;;;4346778;33;20017;-75
2021/05/22 09:10:50;;;;;;;;;;;11.30;91.10;;;;;;4346550;33;21167;-75
2021/05/22 09:13:22;;;;;;;;;;;11.30;91.00;;;;;;4334186;33;20406;-75
2021/05/22 09:15:56;;;;;;;;;;;11.40;90.90;;;;;;4333777;33;20025;-74
2021/05/22 09:18:34;;;;;;;;;;;11.40;91.00;;;;;;4333376;33;20445;-74
2021/05/22 09:21:03;;;;;;;;;;;11.40;90.90;;;;;;4333449;33;20005;-75
2021/05/22 09:23:39;;;;;;;;;;;11.40;90.90;;;;;;4346064;33;21566;-74
2021/05/22 09:26:06;;;;;;;;;;;11.40;90.70;;;;;;4333310;33;20514;-74
2021/05/22 09:28:38;;;;;;;;;;;11.50;90.70;;;;;;4333209;33;20071;-73
2021/05/22 09:31:08;;;;;;;;;;;11.50;91.20;;;;;;4333624;33;20054;-74
2021/05/22 09:33:35;;;;;;;;;;;11.50;90.60;;;;;;4333112;33;20017;-73
2021/05/22 09:36:04;;;;;;;;;;;11.50;90.60;;;;;;4333095;33;20002;-75
2021/05/22 09:38:58;;;;;;;;;;;11.50;90.60;;;;;;4346932;33;20080;-73
2021/05/22 09:41:26;;;;;;;;;;;11.50;90.60;;;;;;4330204;33;22246;-73
2021/05/22 09:44:12;;;;;;;;;;;11.50;90.60;;;;;;4333634;33;20021;-74
2021/05/22 09:46:49;;;;;;;;;;;11.50;90.50;;;;;;4346369;33;29377;-73
2021/05/22 09:49:20;;;;;;;;;;;11.50;90.60;;;;;;4333037;33;20015;-73
2021/05/22 09:52:01;;;;;;;;;;;11.50;90.50;;;;;;4321394;33;19997;-75
2021/05/22 09:54:40;;;;;;;;;;;11.50;90.50;;;;;;4346158;33;20052;-75
2021/05/22 09:57:07;;;;;;;;;;;11.50;90.60;;;;;;4333163;33;20011;-73
2021/05/22 09:59:37;;;;;;;;;;;11.50;90.60;;;;;;4333214;33;20013;-73
2021/05/22 10:02:05;;;;;;;;;;;11.50;90.70;;;;;;4346601;33;20019;-73
2021/05/22 10:04:32;;;;;;;;;;;11.50;90.60;;;;;;4333114;33;20377;-74
2021/05/22 10:06:59;;;;;;;;;;;11.50;90.70;;;;;;4333329;33;20092;-73
2021/05/22 10:09:28;;;;;;;;;;;11.60;90.60;;;;;;4346595;33;20398;-73
2021/05/22 10:12:02;;;;;;;;;;;11.60;90.60;;;;;;4333214;33;20039;-74
2021/05/22 10:14:40;;;;;;;;;;;11.60;90.80;;;;;;4346497;33;20411;-73
2021/05/22 10:17:08;;;;;;;;;;;11.70;90.60;;;;;;4346334;33;20001;-73
2021/05/22 10:19:36;;;;;;;;;;;11.70;90.50;;;;;;4332786;33;20020;-74
2021/05/22 10:22:04;;;;;;;;;;;11.70;90.40;;;;;;4346677;33;20091;-74
2021/05/22 10:24:32;;;;;;;;;;;11.80;90.50;;;;;;4346691;33;20023;-73
2021/05/22 10:26:59;;;;;;;;;;;11.80;90.30;;;;;;4346191;33;20015;-74
2021/05/22 10:29:27;;;;;;;;;;;11.80;90.50;;;;;;4345957;33;20044;-74
2021/05/22 10:31:54;;;;;;;;;;;11.80;90.50;;;;;;4333181;33;20477;-73
2021/05/22 10:34:25;;;;;;;;;;;11.80;90.30;;;;;;4346364;33;20440;-74
2021/05/22 10:36:54;;;;;;;;;;;11.80;90.30;;;;;;4346509;33;20027;-74
2021/05/22 10:39:33;;;;;;;;;;;11.80;90.30;;;;;;4345958;33;20009;-74
2021/05/22 10:42:01;;;;;;;;;;;11.90;90.20;;;;;;4345910;33;20001;-73
2021/05/22 10:44:33;;;;;;;;;;;11.90;90.10;;;;;;4346023;33;20020;-73
2021/05/22 10:47:03;;;;;;;;;;;11.90;90.10;;;;;;4346667;33;20394;-73
2021/05/22 10:49:46;;;;;;;;;;;11.90;90.00;;;;;;4332515;33;20031;-73
2021/05/22 10:52:26;;;;;;;;;;;11.90;89.80;;;;;;4345742;33;20005;-73
2021/05/22 10:55:05;;;;;;;;;;;11.90;90.00;;;;;;4332090;33;20078;-73
2021/05/22 10:57:52;;;;;;;;;;;12.00;90.00;;;;;;4346268;33;20021;-73
2021/05/22 11:00:20;;;;;;;;;;;12.00;90.00;;;;;;4332636;33;19997;-74
2021/05/22 11:02:54;;;;;;;;;;;12.00;89.60;;;;;;4333094;33;20012;-74
2021/05/22 11:05:26;;;;;;;;;;;12.00;89.50;;;;;;4332869;33;20446;-74
2021/05/22 11:08:02;;;;;;;;;;;12.00;89.40;;;;;;4333079;33;20013;-74
2021/05/22 11:10:36;;;;;;;;;;;12.00;89.30;;;;;;4346967;33;20007;-74
2021/05/22 11:13:07;;;;;;;;;;;12.00;89.70;;;;;;4348335;33;20001;-74
2021/05/22 11:15:37;;;;;;;;;;;12.00;89.70;;;;;;4334787;33;20060;-73
2021/05/22 11:18:04;;;;;;;;;;;12.10;90.00;;;;;;4348443;33;20453;-73
2021/05/22 11:20:33;;;;;;;;;;;12.10;89.80;;;;;;4348503;33;20001;-73
2021/05/22 11:23:03;;;;;;;;;;;12.20;89.70;;;;;;4335428;33;20021;-73
2021/05/22 11:25:51;;;;;;;;;;;12.20;90.10;;;;;;4323002;33;20007;-73
2021/05/22 11:28:21;;;;;;;;;;;12.20;90.30;;;;;;4347997;33;24705;-73
2021/05/22 11:30:52;;;;;;;;;;;12.20;89.70;;;;;;4334901;33;20012;-73
2021/05/22 11:33:22;;;;;;;;;;;12.20;89.90;;;;;;4335114;33;20017;-73
2021/05/22 11:35:51;;;;;;;;;;;12.20;89.80;;;;;;4334935;33;20027;-73
2021/05/22 11:38:21;;;;;;;;;;;12.10;89.70;;;;;;4335226;33;20013;-73
2021/05/22 11:41:03;;;;;;;;;;;12.20;89.60;;;;;;4348514;33;20002;-75
2021/05/22 11:43:38;;;;;;;;;;;12.20;89.60;;;;;;4335822;33;20061;-73
2021/05/22 11:46:07;;;;;;;;;;;12.10;89.40;;;;;;4334817;33;19994;-73
2021/05/22 11:48:36;;;;;;;;;;;12.10;89.00;;;;;;4348077;33;20013;-74
2021/05/22 11:51:05;;;;;;;;;;;12.10;88.80;;;;;;4348158;33;20020;-73
2021/05/22 11:53:34;;;;;;;;;;;12.10;88.60;;;;;;4348230;33;20005;-73
2021/05/22 11:56:04;;;;;;;;;;;12.20;89.00;;;;;;4334157;33;20009;-73
2021/05/22 11:58:31;;;;;;;;;;;12.20;88.60;;;;;;4334413;33;20418;-73
2021/05/22 12:01:19;;;;;;;;;;;12.10;88.60;;;;;;4347935;33;20039;-73
2021/05/22 12:03:50;;;;;;;;;;;12.10;88.40;;;;;;4348063;33;19997;-73
2021/05/22 12:06:27;;;;;;;;;;;12.10;88.40;;;;;;4334674;33;20019;-73
2021/05/22 12:09:05;;;;;;;;;;;12.10;88.40;;;;;;4347894;33;20079;-73
2021/05/22 12:11:33;;;;;;;;;;;12.10;88.50;;;;;;4334619;33;20017;-73
2021/05/22 12:14:02;;;;;;;;;;;12.10;88.70;;;;;;4347947;33;20005;-74
2021/05/22 12:16:29;;;;;;;;;;;12.10;88.70;;;;;;4334605;33;20008;-74
2021/05/22 12:19:10;;;;;;;;;;;12.10;88.90;;;;;;4347718;33;20005;-73
2021/05/22 12:21:37;;;;;;;;;;;12.00;88.90;;;;;;4347808;33;20423;-73
2021/05/22 12:24:11;;;;;;;;;;;12.00;89.20;;;;;;4347955;33;20064;-74
2021/05/22 12:26:48;;;;;;;;;;;12.00;89.20;;;;;;4347456;33;20001;-73
2021/05/22 12:29:16;;;;;;;;;;;12.00;89.30;;;;;;4334047;33;20095;-73
2021/05/22 12:31:47;;;;;;;;;;;12.00;89.40;;;;;;4347930;33;20005;-74
2021/05/22 12:34:17;;;;;;;;;;;12.00;90.00;;;;;;4347656;33;19997;-74
2021/05/22 12:36:54;;;;;;;;;;;12.00;90.00;;;;;;4347605;33;20012;-75
2021/05/22 12:39:21;;;;;;;;;;;11.90;90.20;;;;;;4347533;33;20006;-74
2021/05/22 12:41:48;;;;;;;;;;;11.90;90.30;;;;;;4347349;33;20023;-74
2021/05/22 12:44:22;;;;;;;;;;;11.90;90.30;;;;;;4333815;33;20064;-74
2021/05/22 12:46:59;;;;;;;;;;;11.90;90.20;;;;;;4347599;33;20005;-74
2021/05/22 12:49:33;;;;;;;;;;;11.90;90.40;;;;;;4347031;33;20673;-74
2021/05/22 12:52:12;;;;;;;;;;;11.90;90.40;;;;;;4333546;33;23259;-74
2021/05/22 12:54:41;;;;;;;;;;;11.90;90.40;;;;;;4347601;33;20005;-73
2021/05/22 12:57:13;;;;;;;;;;;11.80;90.30;;;;;;4346984;33;20354;-74
2021/05/22 12:59:42;;;;;;;;;;;11.90;90.50;;;;;;4333992;33;20025;-73
2021/05/22 13:02:25;;;;;;;;;;;11.90;90.40;;;;;;4321490;33;20351;-73
2021/05/22 13:05:13;;;;;;;;;;;11.80;90.80;;;;;;4346666;33;22397;-73
2021/05/22 13:07:40;;;;;;;;;;;11.90;90.50;;;;;;4334550;33;20006;-73
2021/05/22 13:10:11;;;;;;;;;;;11.80;90.50;;;;;;4347206;33;20016;-74
2021/05/22 13:12:52;;;;;;;;;;;11.90;90.60;;;;;;4321579;33;20020;-74
2021/05/22 13:15:19;;;;;;;;;;;11.90;90.50;;;;;;4346936;33;20016;-74
2021/05/22 13:17:47;;;;;;;;;;;11.90;90.70;;;;;;4321286;33;19990;-73
2021/05/22 13:20:24;;;;;;;;;;;11.90;90.80;;;;;;4346983;33;20443;-73
2021/05/22 13:23:04;;;;;;;;;;;11.90;91.00;;;;;;4347117;33;20009;-73
2021/05/22 13:25:32;;;;;;;;;;;11.90;91.00;;;;;;4346835;33;20017;-73
2021/05/22 13:27:59;;;;;;;;;;;11.90;90.80;;;;;;4346648;33;20006;-73
2021/05/22 13:30:30;;;;;;;;;;;11.90;91.00;;;;;;4346738;33;20072;-73
2021/05/22 13:32:58;;;;;;;;;;;11.90;91.10;;;;;;4346644;33;20395;-73
2021/05/22 13:35:26;;;;;;;;;;;11.90;91.10;;;;;;4333572;33;20009;-73
2021/05/22 13:37:54;;;;;;;;;;;12.00;91.10;;;;;;4346295;33;20015;-73
2021/05/22 13:40:29;;;;;;;;;;;12.00;91.10;;;;;;4333446;33;20175;-73
2021/05/22 13:42:57;;;;;;;;;;;12.00;91.20;;;;;;4346677;33;20072;-74
2021/05/22 13:45:24;;;;;;;;;;;12.00;91.10;;;;;;4347130;33;20001;-73
2021/05/22 13:47:52;;;;;;;;;;;12.00;91.10;;;;;;4346655;33;20010;-73
2021/05/22 13:50:19;;;;;;;;;;;12.00;91.00;;;;;;4346816;33;20043;-73
2021/05/22 13:52:47;;;;;;;;;;;12.00;91.00;;;;;;4346601;33;20070;-73
2021/05/22 13:55:15;;;;;;;;;;;12.10;91.00;;;;;;4333031;33;20010;-73
2021/05/22 13:57:45;;;;;;;;;;;12.10;91.20;;;;;;4346415;33;20361;-73
2021/05/22 14:00:14;;;;;;;;;;;12.10;91.10;;;;;;4333034;33;19998;-73
2021/05/22 14:02:41;;;;;;;;;;;12.10;91.20;;;;;;4333336;33;20061;-73
2021/05/22 14:05:12;;;;;;;;;;;12.10;91.30;;;;;;4333187;33;20015;-73
2021/05/22 14:07:39;;;;;;;;;;;12.00;91.20;;;;;;4346290;33;20020;-73
2021/05/22 14:10:09;;;;;;;;;;;12.00;91.20;;;;;;4333180;33;20075;-73
2021/05/22 14:12:36;;;;;;;;;;;12.00;91.20;;;;;;4346153;33;20068;-73
2021/05/22 14:15:04;;;;;;;;;;;12.00;91.20;;;;;;4346655;33;20084;-73
2021/05/22 14:17:31;;;;;;;;;;;12.00;91.20;;;;;;4333039;33;20019;-73
2021/05/22 14:20:03;;;;;;;;;;;11.90;91.20;;;;;;4346464;33;20035;-73
2021/05/22 14:22:30;;;;;;;;;;;12.00;91.30;;;;;;4346023;33;20013;-73
2021/05/22 14:24:59;;;;;;;;;;;12.00;91.20;;;;;;4346277;33;20009;-74
2021/05/22 14:27:26;;;;;;;;;;;12.00;91.20;;;;;;4346394;33;20066;-73
2021/05/22 14:29:54;;;;;;;;;;;12.00;91.30;;;;;;4333270;33;20008;-74
2021/05/22 14:32:21;;;;;;;;;;;12.00;91.20;;;;;;4346154;33;20013;-74
2021/05/22 14:34:48;;;;;;;;;;;12.00;91.10;;;;;;4346394;33;20009;-74
2021/05/22 14:37:15;;;;;;;;;;;12.10;91.10;;;;;;4332573;33;20428;-73
2021/05/22 14:39:42;;;;;;;;;;;12.10;91.10;;;;;;4332538;33;19997;-73
2021/05/22 14:42:12;;;;;;;;;;;12.10;91.00;;;;;;4346445;33;20065;-73
2021/05/22 14:44:41;;;;;;;;;;;12.10;90.90;;;;;;4332990;33;19993;-74
2021/05/22 14:47:08;;;;;;;;;;;12.10;90.90;;;;;;4349002;33;20011;-73
2021/05/22 14:49:38;;;;;;;;;;;12.10;90.90;;;;;;4349306;33;20027;-73
2021/05/22 14:52:06;;;;;;;;;;;12.10;90.70;;;;;;4323275;33;19993;-73
2021/05/22 14:54:36;;;;;;;;;;;12.10;90.70;;;;;;4335615;33;20011;-73
2021/05/22 14:57:06;;;;;;;;;;;12.00;91.00;;;;;;4348654;33;20009;-73
2021/05/22 14:59:33;;;;;;;;;;;12.00;90.70;;;;;;4348593;33;20465;-73
2021/05/22 15:02:00;;;;;;;;;;;12.00;90.80;;;;;;4335656;33;20064;-73
2021/05/22 15:04:32;;;;;;;;;;;12.00;90.80;;;;;;4348685;33;20108;-73
2021/05/22 15:07:01;;;;;;;;;;;12.00;90.80;;;;;;4349172;33;20367;-73
2021/05/22 15:09:31;;;;;;;;;;;12.00;90.80;;;;;;4348534;33;20017;-73
2021/05/22 15:11:58;;;;;;;;;;;12.00;90.90;;;;;;4348758;33;19994;-73
2021/05/22 15:14:27;;;;;;;;;;;12.00;90.90;;;;;;4335425;33;20353;-73
2021/05/22 15:16:54;;;;;;;;;;;12.00;90.90;;;;;;4322979;33;20373;-73
2021/05/22 15:19:21;;;;;;;;;;;12.00;90.90;;;;;;4348907;33;20028;-74
2021/05/22 15:21:49;;;;;;;;;;;12.00;90.90;;;;;;4348566;33;20005;-74
2021/05/22 15:24:16;;;;;;;;;;;12.00;90.90;;;;;;4348547;33;20009;-74
2021/05/22 15:26:43;;;;;;;;;;;12.00;90.90;;;;;;4348501;33;20027;-74
2021/05/22 15:29:10;;;;;;;;;;;12.00;90.90;;;;;;4335304;33;20001;-74
2021/05/22 15:31:38;;;;;;;;;;;11.90;90.90;;;;;;4348275;33;20009;-73
2021/05/22 15:34:09;;;;;;;;;;;12.00;90.90;;;;;;4348172;33;20027;-74
2021/05/22 15:36:36;;;;;;;;;;;11.90;90.90;;;;;;4348380;33;20009;-74
2021/05/22 15:39:04;;;;;;;;;;;11.90;91.00;;;;;;4348424;33;20009;-73
2021/05/22 15:41:31;;;;;;;;;;;11.90;91.00;;;;;;4335042;33;19997;-73
2021/05/22 15:44:04;;;;;;;;;;;11.90;90.90;;;;;;4335087;33;20060;-73
2021/05/22 15:46:35;;;;;;;;;;;11.90;90.90;;;;;;4323467;33;20050;-73
2021/05/22 15:59:29;;;;;;;;;;;11.90;91.10;;;;;;4347815;33;20005;-73
2021/05/22 16:02:36;;;;;;;;;;;11.90;91.10;;;;;;4348168;33;20002;-73
2021/05/22 16:05:41;;;;;;;;;;;11.90;91.10;;;;;;4345658;33;20004;-73
2021/05/22 16:07:39;;;;;;;;;;;11.90;91.10;;;;;;4339784;33;20060;-73